Time;durP1;ratioP1;P1;durP2;ratioP2;P2;SDS_P1;SDS_P2;PMS_P1;PMS_P2;Temp;Humidity;BMP_temperature;BMP_pressure;BME280_temperature;BME280_humidity;BME280_pressure;Samples;Min_cycle;Max_cycle;Signal;HPM_P1;HPM_P2
2021/09/04 00:01:58;;;;;;;6.65;3.77;;;;;;;13.46;60.83;99805.43;1770905;80;20995;-72
2021/09/04 00:04:24;;;;;;;7.10;4.10;;;;;;;13.47;60.82;99801.79;1786545;80;20975;-72
2021/09/04 00:06:52;;;;;;;6.22;4.22;;;;;;;13.47;60.78;99801.79;1782699;79;21550;-72
2021/09/04 00:09:20;;;;;;;6.25;3.95;;;;;;;13.48;60.77;99798.64;1756501;80;21542;-73
2021/09/04 00:11:48;;;;;;;6.92;4.45;;;;;;;13.46;60.76;99801.45;1783465;80;20961;-72
2021/09/04 00:14:14;;;;;;;8.68;4.40;;;;;;;13.46;60.79;99797.47;1780744;80;20972;-71
2021/09/04 00:16:43;;;;;;;6.05;3.67;;;;;;;13.47;60.90;99799.14;1780975;80;20932;-71
2021/09/04 00:19:11;;;;;;;7.83;4.00;;;;;;;13.46;61.05;99797.47;1783572;79;21003;-71
2021/09/04 00:21:38;;;;;;;7.58;3.92;;;;;;;13.44;61.18;99792.82;1771816;80;20933;-72
2021/09/04 00:24:05;;;;;;;7.33;3.75;;;;;;;13.42;61.22;99793.47;1752422;81;20943;-72
2021/09/04 00:26:31;;;;;;;6.33;3.77;;;;;;;13.41;61.31;99798.41;1758602;80;20980;-72
2021/09/04 00:28:58;;;;;;;6.42;3.90;;;;;;;13.38;61.46;99797.41;1783529;80;21028;-71
2021/09/04 00:31:24;;;;;;;5.83;4.12;;;;;;;13.31;61.54;99790.55;1783555;80;22155;-71
2021/09/04 00:33:50;;;;;;;7.40;3.95;;;;;;;13.22;61.76;99788.84;1783353;80;20980;-71
2021/09/04 00:36:17;;;;;;;7.37;4.70;;;;;;;13.15;62.01;99788.58;1752903;80;20940;-72
2021/09/04 00:38:44;;;;;;;7.53;4.12;;;;;;;13.09;62.22;99789.67;1783125;80;21447;-71
2021/09/04 00:41:11;;;;;;;5.72;3.60;;;;;;;13.06;62.36;99789.98;1783394;79;20964;-72
2021/09/04 00:43:37;;;;;;;5.75;3.77;;;;;;;13.02;62.48;99788.11;1782059;80;22885;-71
2021/09/04 00:46:08;;;;;;;7.25;3.60;;;;;;;13.00;62.63;99789.25;1771248;80;20944;-71
2021/09/04 00:48:36;;;;;;;6.40;4.30;;;;;;;12.97;62.84;99782.94;1752490;82;20976;-71
2021/09/04 00:51:05;;;;;;;6.17;4.20;;;;;;;12.96;62.96;99782.11;1752403;80;20936;-71
2021/09/04 00:53:31;;;;;;;7.40;4.08;;;;;;;12.98;63.07;99788.58;1752729;82;20972;-71
2021/09/04 00:55:59;;;;;;;9.40;4.40;;;;;;;12.99;63.12;99788.42;1771857;80;22676;-70
2021/09/04 00:58:25;;;;;;;8.68;3.98;;;;;;;13.00;63.10;99808.64;1783313;80;21380;-71
2021/09/04 01:00:53;;;;;;;8.70;4.05;;;;;;;12.99;63.25;99806.98;1775568;80;20960;-71
2021/09/04 01:03:20;;;;;;;5.78;4.30;;;;;;;13.00;63.46;99810.45;1749017;80;21080;-70
2021/09/04 01:05:48;;;;;;;6.15;3.70;;;;;;;13.01;63.50;99812.13;1744453;82;20949;-71
2021/09/04 01:08:15;;;;;;;7.37;4.17;;;;;;;12.97;63.51;99799.67;1744410;82;22666;-71
2021/09/04 01:10:43;;;;;;;6.85;4.33;;;;;;;12.93;63.57;99801.44;1743806;82;21028;-71
2021/09/04 01:13:10;;;;;;;7.00;4.50;;;;;;;12.91;63.64;99802.91;1742795;82;21031;-70
2021/09/04 01:15:39;;;;;;;7.97;4.25;;;;;;;12.86;63.75;99795.43;1742989;80;20948;-71
2021/09/04 01:18:07;;;;;;;8.08;4.58;;;;;;;12.82;63.89;99799.84;1745536;80;21420;-71
2021/09/04 01:20:33;;;;;;;8.08;4.40;;;;;;;12.78;64.01;99797.16;1744583;82;22837;-71
2021/09/04 01:23:00;;;;;;;7.37;4.50;;;;;;;12.74;64.13;99801.08;1744665;82;21030;-71
2021/09/04 01:25:29;;;;;;;9.63;4.53;;;;;;;12.73;64.22;99802.06;1744489;82;20960;-71
2021/09/04 01:27:56;;;;;;;7.55;4.20;;;;;;;12.71;64.38;99800.06;1744670;81;20989;-71
2021/09/04 01:30:23;;;;;;;6.70;4.22;;;;;;;12.69;64.53;99804.68;1744581;81;20989;-71
2021/09/04 01:32:49;;;;;;;6.00;4.08;;;;;;;12.69;64.60;99800.70;1744621;82;21662;-71
2021/09/04 01:35:24;;;;;;;6.20;4.10;;;;;;;12.66;64.68;99797.88;1745328;80;20936;-71
2021/09/04 01:37:51;;;;;;;8.48;4.33;;;;;;;12.64;64.72;99797.66;1744745;82;21544;-71
2021/09/04 01:40:18;;;;;;;7.15;4.25;;;;;;;12.60;64.79;99797.13;1756959;79;20949;-73
2021/09/04 01:42:46;;;;;;;6.92;4.37;;;;;;;12.57;64.90;99794.30;1775087;80;20976;-73
2021/09/04 01:45:13;;;;;;;7.45;4.47;;;;;;;12.57;64.92;99796.11;1767411;80;22980;-73
2021/09/04 01:47:39;;;;;;;6.60;4.28;;;;;;;12.57;64.95;99797.44;1764002;80;20992;-72
2021/09/04 01:50:09;;;;;;;6.10;4.25;;;;;;;12.55;64.97;99797.59;1775312;80;21420;-71
2021/09/04 01:52:37;;;;;;;6.65;4.00;;;;;;;12.53;64.97;99799.53;1733976;82;20984;-71
2021/09/04 01:55:05;;;;;;;8.60;4.65;;;;;;;12.53;64.99;99796.88;1744695;82;21482;-72
2021/09/04 01:57:32;;;;;;;6.80;4.30;;;;;;;12.53;65.01;99790.26;1744382;81;21829;-71
2021/09/04 01:59:58;;;;;;;7.25;4.47;;;;;;;12.52;65.07;99783.79;1726242;81;20942;-72
2021/09/04 02:02:25;;;;;;;6.42;4.17;;;;;;;12.52;65.10;99788.59;1782451;80;20940;-71
2021/09/04 02:04:51;;;;;;;8.58;4.20;;;;;;;12.54;65.16;99786.63;1788946;78;21157;-73
2021/09/04 02:07:19;;;;;;;10.03;4.80;;;;;;;12.56;65.18;99782.53;1787924;80;20968;-70
2021/09/04 02:09:46;;;;;;;8.03;4.50;;;;;;;12.57;65.19;99787.67;1787374;78;21383;-70
2021/09/04 02:12:14;;;;;;;7.75;4.35;;;;;;;12.58;65.23;99786.69;1788755;80;20924;-71
2021/09/04 02:14:42;;;;;;;11.45;4.50;;;;;;;12.59;65.20;99782.22;1788916;80;20992;-73
2021/09/04 02:17:09;;;;;;;6.78;4.40;;;;;;;12.60;65.29;99778.09;1788798;78;21399;-70
2021/09/04 02:19:35;;;;;;;8.73;4.75;;;;;;;12.64;65.31;99773.81;1789315;80;21380;-71
2021/09/04 02:22:03;;;;;;;9.00;4.62;;;;;;;12.65;65.37;99772.85;1788873;80;21728;-70
2021/09/04 02:24:29;;;;;;;8.78;4.40;;;;;;;12.67;65.43;99770.39;1789091;79;21364;-71
2021/09/04 02:26:58;;;;;;;6.20;4.40;;;;;;;12.72;65.46;99776.05;1762775;80;21364;-70
2021/09/04 02:29:24;;;;;;;7.62;4.70;;;;;;;12.74;65.44;99786.04;1757940;81;20953;-71
2021/09/04 02:31:52;;;;;;;6.05;4.33;;;;;;;12.77;65.39;99779.59;1757812;80;21498;-71
2021/09/04 02:34:18;;;;;;;6.40;4.33;;;;;;;12.81;65.39;99774.33;1758059;81;22801;-70
2021/09/04 02:36:47;;;;;;;7.35;4.70;;;;;;;12.85;65.31;99783.16;1770994;80;20933;-71
2021/09/04 02:39:13;;;;;;;8.68;4.40;;;;;;;12.87;65.22;99774.56;1788865;78;21019;-70
2021/09/04 02:41:42;;;;;;;8.50;5.00;;;;;;;12.90;65.17;99777.40;1788880;80;20980;-71
2021/09/04 02:44:09;;;;;;;8.28;5.35;;;;;;;12.91;65.15;99773.76;1787072;80;20848;-71
2021/09/04 02:46:37;;;;;;;9.03;6.03;;;;;;;12.93;65.06;99782.88;1788633;80;21829;-71
2021/09/04 02:49:04;;;;;;;10.78;6.30;;;;;;;12.94;65.01;99783.25;1788600;80;20960;-71
2021/09/04 02:51:31;;;;;;;12.85;6.55;;;;;;;12.94;65.00;99772.16;1788817;80;21502;-71
2021/09/04 02:53:58;;;;;;;11.18;7.03;;;;;;;12.95;64.98;99779.11;1788861;80;20953;-71
2021/09/04 02:56:24;;;;;;;11.33;6.62;;;;;;;12.97;65.02;99781.12;1758291;80;20936;-71
2021/09/04 02:58:52;;;;;;;13.13;6.53;;;;;;;12.98;64.99;99782.78;1788790;80;21818;-71
2021/09/04 03:01:19;;;;;;;13.32;7.55;;;;;;;13.00;64.94;99776.83;1778609;80;21334;-71
2021/09/04 03:03:47;;;;;;;14.35;7.70;;;;;;;13.03;64.93;99781.84;1774469;80;20921;-72
2021/09/04 03:06:14;;;;;;;14.60;7.70;;;;;;;13.04;64.90;99775.55;1744603;80;20937;-71
2021/09/04 03:08:41;;;;;;;14.33;7.97;;;;;;;13.06;64.94;99789.48;1744452;82;21027;-71
2021/09/04 03:11:10;;;;;;;14.30;7.70;;;;;;;13.07;64.96;99793.80;1760014;79;21485;-71
2021/09/04 03:13:36;;;;;;;13.98;7.83;;;;;;;13.07;64.95;99794.30;1775000;80;21008;-71
2021/09/04 03:16:03;;;;;;;14.70;7.78;;;;;;;13.05;65.04;99790.97;1753209;80;20988;-71
2021/09/04 03:18:31;;;;;;;12.47;7.15;;;;;;;13.05;65.15;99801.08;1744363;82;21501;-71
2021/09/04 03:20:57;;;;;;;16.65;6.20;;;;;;;13.05;65.26;99800.25;1744341;82;20933;-71
2021/09/04 03:23:25;;;;;;;10.32;5.55;;;;;;;13.04;65.30;99800.74;1744343;82;22232;-71
2021/09/04 03:25:52;;;;;;;9.03;5.60;;;;;;;13.01;65.41;99810.30;1744223;82;20980;-71
2021/09/04 03:28:18;;;;;;;8.95;4.92;;;;;;;13.01;65.53;99816.93;1769567;79;20933;-72
2021/09/04 03:30:44;;;;;;;8.30;4.90;;;;;;;13.00;65.57;99815.77;1775131;80;20968;-71
2021/09/04 03:33:12;;;;;;;8.23;5.03;;;;;;;13.01;65.65;99812.13;1727354;80;21008;-71
2021/09/04 03:35:40;;;;;;;8.43;5.08;;;;;;;13.01;65.73;99816.09;1775065;80;21755;-71
2021/09/04 03:38:07;;;;;;;9.10;5.47;;;;;;;13.01;65.79;99824.05;1774972;79;20972;-71
2021/09/04 03:40:34;;;;;;;9.10;5.25;;;;;;;13.01;65.87;99835.98;1774984;80;20961;-74
2021/09/04 03:43:01;;;;;;;10.53;5.75;;;;;;;13.03;65.90;99831.39;1763361;80;20996;-70
2021/09/04 03:45:31;;;;;;;10.25;6.17;;;;;;;13.03;66.00;99834.88;1744399;82;21047;-71
2021/09/04 03:47:59;;;;;;;11.10;6.45;;;;;;;13.04;65.94;99828.58;1744340;82;21832;-71
2021/09/04 03:50:26;;;;;;;11.73;6.50;;;;;;;13.07;65.99;99836.22;1745262;80;20988;-71
2021/09/04 03:52:52;;;;;;;7.55;5.53;;;;;;;13.08;66.02;99836.56;1744283;82;20972;-72
2021/09/04 03:55:19;;;;;;;11.60;6.05;;;;;;;13.10;66.01;99835.08;1744597;82;21400;-71
2021/09/04 03:57:47;;;;;;;10.08;5.62;;;;;;;13.10;66.00;99839.89;1759497;80;20977;-71
2021/09/04 04:00:16;;;;;;;9.05;5.67;;;;;;;13.13;65.97;99838.28;1775201;80;21467;-71
2021/09/04 04:02:45;;;;;;;8.15;4.67;;;;;;;13.14;65.87;99837.30;1758560;80;21451;-71
2021/09/04 04:05:13;;;;;;;9.43;5.00;;;;;;;13.16;65.86;99839.79;1747844;80;21478;-71
2021/09/04 04:07:41;;;;;;;9.50;5.10;;;;;;;13.18;65.80;99837.31;1756036;80;21090;-71
2021/09/04 04:10:10;;;;;;;7.28;4.70;;;;;;;13.21;65.78;99842.00;1778374;80;20967;-71
2021/09/04 04:12:40;;;;;;;11.95;5.03;;;;;;;13.22;65.75;99851.16;1778342;80;22656;-70
2021/09/04 04:15:09;;;;;;;8.70;4.80;;;;;;;13.24;65.78;99850.51;1778525;79;20973;-70
2021/09/04 04:17:37;;;;;;;6.05;4.17;;;;;;;13.27;65.73;99848.87;1778332;80;20949;-70
2021/09/04 04:20:06;;;;;;;9.35;4.90;;;;;;;13.29;65.70;99855.34;1778673;80;21502;-71
2021/09/04 04:22:33;;;;;;;7.75;4.58;;;;;;;13.30;65.64;99839.77;1777569;80;20945;-71
2021/09/04 04:25:00;;;;;;;8.33;4.70;;;;;;;13.34;65.68;99854.41;1777337;80;22154;-71
2021/09/04 04:27:27;;;;;;;7.97;4.70;;;;;;;13.36;65.59;99851.11;1777475;79;20925;-71
2021/09/04 04:29:54;;;;;;;6.62;4.30;;;;;;;13.36;65.58;99853.27;1748017;80;20972;-71
2021/09/04 04:32:22;;;;;;;7.12;5.10;;;;;;;13.40;65.59;99857.77;1747543;82;21239;-70
2021/09/04 04:34:49;;;;;;;9.00;5.10;;;;;;;13.41;65.54;99855.45;1747883;81;21004;-70
2021/09/04 04:37:18;;;;;;;8.83;5.72;;;;;;;13.44;65.54;99850.69;1747644;82;21850;-68
2021/09/04 04:39:45;;;;;;;7.85;5.15;;;;;;;13.48;65.48;99856.51;1747543;82;20940;-70
2021/09/04 04:42:12;;;;;;;9.65;4.90;;;;;;;13.53;65.44;99870.66;1762730;80;21459;-70
2021/09/04 04:44:40;;;;;;;8.35;4.70;;;;;;;13.59;65.50;99872.19;1778410;80;21020;-71
2021/09/04 04:47:07;;;;;;;8.83;4.80;;;;;;;13.65;65.41;99865.45;1771898;80;21009;-73
2021/09/04 04:49:34;;;;;;;8.10;4.85;;;;;;;13.73;65.31;99867.67;1747618;80;21878;-73
2021/09/04 04:52:01;;;;;;;6.72;4.50;;;;;;;13.80;65.07;99871.02;1747617;80;21418;-72
2021/09/04 04:54:28;;;;;;;7.85;4.40;;;;;;;13.86;64.91;99872.56;1747575;82;21407;-74
2021/09/04 04:56:55;;;;;;;8.50;5.08;;;;;;;13.94;64.84;99865.16;1747569;81;20944;-72
2021/09/04 04:59:22;;;;;;;7.62;4.62;;;;;;;14.03;64.72;99865.55;1756250;80;21498;-72
2021/09/04 05:01:49;;;;;;;6.47;4.50;;;;;;;14.10;64.68;99869.75;1747439;82;22833;-69
2021/09/04 05:04:18;;;;;;;7.50;4.40;;;;;;;14.16;64.52;99874.42;1747272;80;21004;-71
2021/09/04 05:06:45;;;;;;;7.28;4.90;;;;;;;14.19;64.28;99872.30;1754833;80;20932;-72
2021/09/04 05:09:12;;;;;;;8.08;4.28;;;;;;;14.22;64.30;99879.12;1753264;80;20988;-71
2021/09/04 05:11:38;;;;;;;6.10;4.20;;;;;;;14.28;64.31;99876.67;1747758;80;20925;-72
2021/09/04 05:14:06;;;;;;;8.38;4.62;;;;;;;14.33;64.12;99877.52;1747534;82;22216;-72
2021/09/04 05:16:32;;;;;;;7.28;4.28;;;;;;;14.35;64.11;99885.32;1767358;80;20988;-72
2021/09/04 05:19:00;;;;;;;8.75;4.40;;;;;;;14.38;64.11;99885.86;1772699;80;21028;-68
2021/09/04 05:21:27;;;;;;;7.03;4.47;;;;;;;14.39;63.95;99887.52;1747848;80;20996;-71
2021/09/04 05:23:53;;;;;;;6.37;4.35;;;;;;;14.38;64.00;99898.28;1747614;82;20974;-70
2021/09/04 05:26:21;;;;;;;9.55;4.50;;;;;;;14.37;64.01;99892.14;1757877;80;21813;-70
2021/09/04 05:28:48;;;;;;;9.55;4.80;;;;;;;14.37;64.13;99885.98;1752336;80;21426;-72
2021/09/04 05:31:14;;;;;;;7.47;4.70;;;;;;;14.38;64.05;99892.50;1745477;80;21433;-70
2021/09/04 05:33:41;;;;;;;7.67;4.83;;;;;;;14.41;64.19;99896.66;1760883;80;21191;-68
2021/09/04 05:36:08;;;;;;;6.37;4.17;;;;;;;14.46;64.26;99898.36;1750133;80;21051;-69
2021/09/04 05:38:36;;;;;;;8.58;5.00;;;;;;;14.54;64.21;99903.72;1756254;80;21711;-71
2021/09/04 05:41:03;;;;;;;8.60;4.97;;;;;;;14.57;64.03;99907.38;1768816;80;21054;-70
2021/09/04 05:43:30;;;;;;;8.80;4.72;;;;;;;14.64;64.11;99907.09;1775858;80;21675;-70
2021/09/04 05:45:56;;;;;;;9.60;5.00;;;;;;;14.73;64.16;99911.95;1759172;80;20917;-72
2021/09/04 05:48:23;;;;;;;7.03;4.30;;;;;;;14.80;64.11;99909.83;1763345;80;21004;-69
2021/09/04 05:50:49;;;;;;;8.00;4.83;;;;;;;14.87;64.05;99916.67;1764902;80;22184;-72
2021/09/04 05:53:16;;;;;;;9.18;4.83;;;;;;;14.92;63.92;99918.84;1761197;80;21043;-71
2021/09/04 05:55:42;;;;;;;6.00;4.28;;;;;;;15.00;64.00;99921.53;1757091;80;21059;-73
2021/09/04 05:58:09;;;;;;;11.55;4.72;;;;;;;15.04;63.88;99919.70;1743220;80;21008;-71
2021/09/04 06:00:35;;;;;;;6.40;4.70;;;;;;;15.10;63.98;99926.22;1764031;80;20945;-72
2021/09/04 06:03:02;;;;;;;8.88;4.97;;;;;;;15.19;64.06;99922.59;1766082;79;21778;-72
2021/09/04 06:05:29;;;;;;;7.28;4.50;;;;;;;15.32;63.92;99929.59;1753225;80;20929;-72
2021/09/04 06:07:56;;;;;;;6.05;4.50;;;;;;;15.42;63.73;99919.63;1767580;80;21055;-71
2021/09/04 06:10:22;;;;;;;7.45;5.15;;;;;;;15.50;63.48;99916.16;1747472;80;21487;-72
2021/09/04 06:12:48;;;;;;;10.95;5.33;;;;;;;15.52;63.00;99917.31;1748367;80;20980;-72
2021/09/04 06:15:17;;;;;;;10.48;5.33;;;;;;;15.50;63.13;99922.81;1747728;80;20932;-71
2021/09/04 06:17:45;;;;;;;9.95;5.15;;;;;;;15.55;63.29;99928.48;1747668;80;21103;-71
2021/09/04 06:20:11;;;;;;;7.78;4.83;;;;;;;15.63;63.21;99931.66;1747634;80;21490;-72
2021/09/04 06:22:39;;;;;;;8.08;5.62;;;;;;;15.66;62.90;99930.02;1771307;80;20944;-71
2021/09/04 06:25:07;;;;;;;7.95;5.00;;;;;;;15.67;62.77;99941.00;1769154;80;20968;-72
2021/09/04 06:27:34;;;;;;;11.22;5.78;;;;;;;15.68;62.75;99942.66;1759699;80;21873;-71
2021/09/04 06:30:00;;;;;;;8.23;5.83;;;;;;;15.66;62.62;99944.16;1745433;80;20996;-71
2021/09/04 06:32:27;;;;;;;8.75;5.20;;;;;;;15.68;62.86;99945.33;1753473;80;20953;-72
2021/09/04 06:34:54;;;;;;;10.38;5.22;;;;;;;15.73;62.91;99951.00;1757626;80;20979;-70
2021/09/04 06:37:20;;;;;;;6.80;4.60;;;;;;;15.83;62.81;99950.84;1747677;80;21088;-74
2021/09/04 06:39:47;;;;;;;12.37;5.10;;;;;;;15.83;62.65;99952.17;1778628;79;22166;-72
2021/09/04 06:42:13;;;;;;;7.30;5.10;;;;;;;15.83;62.63;99954.33;1749593;80;21023;-71
2021/09/04 06:44:40;;;;;;;7.90;4.65;;;;;;;15.83;62.85;99958.33;1748107;80;20961;-69
2021/09/04 06:47:08;;;;;;;8.38;4.50;;;;;;;15.88;63.06;99965.81;1766392;80;20933;-69
2021/09/04 06:49:34;;;;;;;7.55;4.70;;;;;;;15.92;62.96;99962.66;1763339;80;21426;-68
2021/09/04 06:52:01;;;;;;;9.60;4.78;;;;;;;15.91;63.00;99964.97;1766183;80;22889;-70
2021/09/04 06:54:30;;;;;;;7.53;5.05;;;;;;;15.89;63.13;99972.30;1777598;80;20981;-69
2021/09/04 06:56:56;;;;;;;7.75;5.00;;;;;;;15.87;63.34;99979.63;1754069;80;21051;-70
2021/09/04 06:59:22;;;;;;;7.80;4.78;;;;;;;15.89;63.50;99982.11;1748083;80;20980;-70
2021/09/04 07:01:51;;;;;;;7.03;4.70;;;;;;;15.87;63.50;99981.45;1746781;80;20993;-72
2021/09/04 07:04:18;;;;;;;6.37;4.53;;;;;;;15.85;63.66;99986.95;1747470;82;21855;-70
2021/09/04 07:06:44;;;;;;;6.62;4.45;;;;;;;15.81;63.61;99987.43;1747657;82;21016;-69
2021/09/04 07:09:12;;;;;;;6.28;3.90;;;;;;;15.85;63.82;100000.27;1747505;80;20984;-68
2021/09/04 07:11:38;;;;;;;5.97;3.98;;;;;;;15.89;63.63;100000.27;1747952;80;21008;-69
2021/09/04 07:14:05;;;;;;;7.75;4.08;;;;;;;15.95;63.11;99998.78;1748134;80;20984;-68
2021/09/04 07:16:31;;;;;;;5.25;3.90;;;;;;;16.00;63.08;100000.43;1778629;79;21758;-68
2021/09/04 07:18:57;;;;;;;5.83;3.92;;;;;;;16.05;62.94;100010.11;1755595;80;20964;-67
2021/09/04 07:21:24;;;;;;;6.60;3.50;;;;;;;16.09;62.86;100013.26;1709493;83;21068;-70
2021/09/04 07:23:50;;;;;;;6.12;3.25;;;;;;;16.12;62.83;100020.94;1701206;84;20966;-69
2021/09/04 07:26:16;;;;;;;6.65;3.20;;;;;;;16.14;62.71;100021.60;1694285;83;21442;-68
2021/09/04 07:28:43;;;;;;;8.23;3.17;;;;;;;16.14;62.51;100018.94;1709654;82;22638;-70
2021/09/04 07:31:09;;;;;;;4.72;2.95;;;;;;;16.19;62.44;100016.59;1710851;82;21053;-70
2021/09/04 07:33:37;;;;;;;5.62;2.80;;;;;;;16.23;61.68;100013.94;1737514;82;21097;-71
2021/09/04 07:36:08;;;;;;;4.55;2.55;;;;;;;16.27;61.69;100022.75;1737797;82;21582;-69
2021/09/04 07:38:32;;;;;;;5.12;3.00;;;;;;;16.38;61.48;100028.24;1737235;82;21057;-68
2021/09/04 07:40:59;;;;;;;4.42;2.60;;;;;;;16.43;61.31;100023.26;1777385;80;22169;-71
2021/09/04 07:43:25;;;;;;;4.28;2.47;;;;;;;16.50;61.34;100024.26;1777066;80;21027;-71
2021/09/04 07:45:51;;;;;;;3.85;2.30;;;;;;;16.60;61.31;100033.41;1777314;80;21003;-70
2021/09/04 07:48:18;;;;;;;3.77;2.62;;;;;;;16.69;60.81;100031.56;1758581;79;21015;-72
2021/09/04 07:50:45;;;;;;;3.83;2.30;;;;;;;16.71;60.63;100029.08;1773426;80;21024;-72
2021/09/04 07:53:12;;;;;;;3.42;2.20;;;;;;;16.72;60.05;100040.08;1747030;80;21718;-73
2021/09/04 07:55:38;;;;;;;3.72;2.02;;;;;;;16.63;59.97;100037.56;1747647;82;21071;-72
2021/09/04 07:58:04;;;;;;;3.33;2.15;;;;;;;16.59;60.16;100044.55;1748085;82;20984;-70
2021/09/04 08:00:31;;;;;;;2.17;1.80;;;;;;;16.64;60.08;100048.56;1748468;81;21074;-70
2021/09/04 08:02:57;;;;;;;2.72;1.98;;;;;;;16.70;60.18;100044.76;1726343;80;20988;-74
2021/09/04 08:05:24;;;;;;;2.65;1.70;;;;;;;16.78;59.79;100049.22;1760813;80;22140;-74
2021/09/04 08:07:52;;;;;;;1.92;1.32;;;;;;;16.86;59.07;100049.20;1785124;80;20984;-74
2021/09/04 08:10:19;;;;;;;2.42;1.40;;;;;;;16.85;58.17;100051.55;1785134;79;21012;-74
2021/09/04 08:12:46;;;;;;;2.45;1.30;;;;;;;16.78;58.09;100054.55;1785254;80;21209;-72
2021/09/04 08:15:13;;;;;;;2.00;1.40;;;;;;;16.72;57.44;100064.08;1773956;80;21023;-71
2021/09/04 08:17:39;;;;;;;4.22;1.40;;;;;;;16.57;57.29;100063.05;1755030;80;22803;-73
2021/09/04 08:20:08;;;;;;;1.47;1.30;;;;;;;16.52;57.33;100064.91;1764931;80;20988;-68
2021/09/04 08:22:34;;;;;;;1.47;1.20;;;;;;;16.51;57.02;100062.41;1758784;80;21043;-70
2021/09/04 08:25:01;;;;;;;1.62;1.32;;;;;;;16.53;56.26;100057.23;1754168;81;21474;-73
2021/09/04 08:27:27;;;;;;;4.03;1.40;;;;;;;16.55;56.63;100055.23;1771339;80;21480;-70
2021/09/04 08:29:55;;;;;;;1.72;1.30;;;;;;;16.63;56.52;100054.39;1782388;80;21421;-74
2021/09/04 08:32:22;;;;;;;2.20;1.30;;;;;;;16.73;56.07;100059.08;1784859;80;21091;-71
2021/09/04 08:34:49;;;;;;;2.25;1.40;;;;;;;16.92;56.11;100061.05;1779780;80;21415;-72
2021/09/04 08:37:15;;;;;;;1.90;1.25;;;;;;;17.07;54.90;100065.99;1784917;79;20988;-72
2021/09/04 08:39:42;;;;;;;1.45;1.17;;;;;;;17.05;53.25;100068.84;1780032;80;21003;-72
2021/09/04 08:42:09;;;;;;;2.42;1.30;;;;;;;16.99;53.76;100068.70;1755508;80;22121;-68
2021/09/04 08:44:37;;;;;;;5.40;1.40;;;;;;;16.96;54.09;100062.36;1754018;80;21055;-72
2021/09/04 08:47:03;;;;;;;1.98;1.17;;;;;;;16.97;54.03;100065.35;1728037;81;21083;-71
2021/09/04 08:49:30;;;;;;;1.57;1.05;;;;;;;16.93;53.95;100064.04;1772563;80;21059;-72
2021/09/04 08:51:57;;;;;;;1.50;1.05;;;;;;;16.89;54.13;100058.23;1725789;80;21019;-71
2021/09/04 08:54:23;;;;;;;2.42;1.25;;;;;;;16.87;53.52;100060.20;1726378;80;22200;-72
2021/09/04 08:56:49;;;;;;;1.62;1.10;;;;;;;16.87;53.60;100059.70;1780467;80;20972;-72
2021/09/04 08:59:16;;;;;;;3.10;1.20;;;;;;;16.89;53.31;100055.56;1754124;80;21530;-72
2021/09/04 09:02:00;;;;;;;1.70;1.15;;;;;;;16.91;53.27;100058.88;1752960;80;21138;-72
2021/09/04 09:04:27;;;;;;;2.65;1.25;;;;;;;16.96;52.85;100057.85;1701311;80;21016;-73
2021/09/04 09:06:53;;;;;;;1.02;0.90;;;;;;;17.01;52.80;100060.86;1748493;80;21820;-73
2021/09/04 09:09:25;;;;;;;2.42;1.30;;;;;;;17.07;52.42;100068.66;1777126;80;20961;-68
2021/09/04 09:11:54;;;;;;;2.47;1.20;;;;;;;17.13;52.36;100074.16;1776828;80;21094;-69
2021/09/04 09:14:22;;;;;;;2.27;1.12;;;;;;;17.13;51.42;100066.66;1760045;80;21008;-71
2021/09/04 09:16:56;;;;;;;2.30;1.40;;;;;;;17.07;51.76;100074.83;1771446;80;20973;-75
2021/09/04 09:19:27;;;;;;;2.12;1.37;;;;;;;16.99;51.73;100074.05;1761621;80;21836;-78
2021/09/04 09:21:57;;;;;;;3.13;1.50;;;;;;;16.90;51.71;100070.56;1751656;80;20995;-73
2021/09/04 09:24:25;;;;;;;1.90;1.40;;;;;;;16.90;51.59;100077.73;1773353;80;20996;-75
2021/09/04 09:26:56;;;;;;;1.20;1.10;;;;;;;16.90;52.25;100081.23;1746676;80;21199;-74
2021/09/04 09:29:32;;;;;;;1.85;1.30;;;;;;;16.96;52.32;100081.86;1756009;80;21015;-72
2021/09/04 09:32:04;;;;;;;2.12;1.30;;;;;;;17.09;52.46;100079.52;1759771;80;21793;-72
2021/09/04 09:34:40;;;;;;;2.70;1.25;;;;;;;17.32;52.49;100088.94;1774477;79;21024;-75
2021/09/04 09:37:07;;;;;;;1.60;1.30;;;;;;;17.57;51.85;100093.70;1775838;80;21023;-78
2021/09/04 09:39:37;;;;;;;2.05;1.10;;;;;;;17.80;51.13;100079.08;1776259;80;21522;-74
2021/09/04 09:42:06;;;;;;;2.27;1.20;;;;;;;17.89;49.69;100083.88;1776421;80;21513;-74
2021/09/04 09:44:35;;;;;;;3.02;1.20;;;;;;;17.81;49.84;100089.26;1751959;80;21769;-72
2021/09/04 09:47:11;;;;;;;2.47;1.40;;;;;;;17.78;50.02;100095.80;1746578;80;21074;-73
2021/09/04 09:49:41;;;;;;;1.70;1.40;;;;;;;17.85;50.20;100100.73;1777149;80;21015;-72
2021/09/04 09:52:11;;;;;;;2.50;1.90;;;;;;;17.92;48.95;100094.20;1777078;80;21467;-74
2021/09/04 09:54:38;;;;;;;2.20;1.60;;;;;;;17.96;49.09;100088.34;1776682;80;21278;-71
2021/09/04 09:57:07;;;;;;;2.17;1.55;;;;;;;18.05;49.08;100092.27;1777106;80;21811;-73
2021/09/04 09:59:34;;;;;;;4.75;2.08;;;;;;;18.20;48.62;100095.86;1751319;80;21035;-73
2021/09/04 10:02:06;;;;;;;2.67;1.70;;;;;;;18.29;47.71;100090.78;1745710;81;21409;-73
2021/09/04 10:04:35;;;;;;;2.92;1.30;;;;;;;18.43;48.38;100083.34;1752874;80;21479;-72
2021/09/04 10:07:04;;;;;;;2.70;1.75;;;;;;;18.67;47.09;100091.67;1756458;80;21024;-72
2021/09/04 10:09:31;;;;;;;2.95;1.90;;;;;;;18.69;46.92;100088.81;1746437;82;22665;-71
2021/09/04 10:11:58;;;;;;;2.20;1.60;;;;;;;18.70;46.97;100096.66;1746474;80;21286;-72
2021/09/04 10:14:25;;;;;;;1.92;1.55;;;;;;;18.65;45.95;100097.72;1755732;80;21027;-73
2021/09/04 10:16:57;;;;;;;2.12;1.50;;;;;;;18.55;45.60;100098.45;1749314;80;21039;-72
2021/09/04 10:19:29;;;;;;;2.02;1.40;;;;;;;18.47;45.99;100095.83;1756521;80;21015;-72
2021/09/04 10:22:02;;;;;;;1.72;1.40;;;;;;;18.49;46.32;100101.83;1764078;80;21839;-73
2021/09/04 10:24:47;;;;;;;2.83;1.20;;;;;;;18.60;46.53;100098.72;1745952;82;21031;-73
2021/09/04 10:27:29;;;;;;;1.62;1.22;;;;;;;18.64;45.17;100106.73;1746501;80;21210;-74
2021/09/04 10:29:56;;;;;;;1.45;1.15;;;;;;;18.46;45.56;100107.03;1746359;82;21383;-72
2021/09/04 10:32:22;;;;;;;1.98;1.30;;;;;;;18.51;46.63;100115.84;1746410;82;21462;-72
2021/09/04 10:35:07;;;;;;;2.62;1.17;;;;;;;18.73;45.62;100108.36;1746362;82;21898;-72
2021/09/04 10:37:44;;;;;;;1.95;0.98;;;;;;;18.88;45.20;100112.38;1746249;80;20985;-71
2021/09/04 10:40:12;;;;;;;1.70;0.90;;;;;;;19.01;44.80;100110.41;1774613;80;21059;-71
2021/09/04 10:42:43;;;;;;;2.33;1.22;;;;;;;19.02;44.29;100118.79;1749377;80;21040;-71
2021/09/04 10:45:15;;;;;;;1.45;0.82;;;;;;;18.95;44.15;100116.52;1777105;80;22118;-70
2021/09/04 10:47:49;;;;;;;1.80;1.00;;;;;;;18.90;44.50;100121.56;1769269;80;39939;-69
2021/09/04 10:50:20;;;;;;;1.55;0.90;;;;;;;18.82;44.16;100119.31;1749871;80;21023;-70
2021/09/04 10:52:56;;;;;;;1.20;1.10;;;;;;;18.68;43.47;100117.41;1746318;82;21012;-70
2021/09/04 10:55:32;;;;;;;3.30;1.30;;;;;;;18.70;43.86;100115.89;1750732;80;21613;-71
2021/09/04 10:58:09;;;;;;;2.02;1.20;;;;;;;19.00;43.84;100114.10;1719849;82;21458;-70
2021/09/04 11:00:45;;;;;;;4.37;1.25;;;;;;;19.26;43.11;100114.50;1766350;80;21781;-70
2021/09/04 11:03:14;;;;;;;1.22;1.10;;;;;;;19.48;43.68;100110.56;1759827;80;21556;-69
2021/09/04 11:05:59;;;;;;;1.35;1.00;;;;;;;19.82;42.80;100112.18;1743114;82;21034;-70
2021/09/04 11:08:42;;;;;;;1.72;0.90;;;;;;;20.12;43.00;100110.25;1767928;80;21487;-69
2021/09/04 11:11:36;;;;;;;1.67;1.10;;;;;;;20.32;42.03;100121.18;1757722;80;21045;-70
2021/09/04 11:14:20;;;;;;;2.35;1.02;;;;;;;20.48;41.82;100123.65;1767808;80;22283;-68
2021/09/04 11:16:51;;;;;;;1.40;1.00;;;;;;;20.64;41.11;100122.53;1773954;80;21007;-69
2021/09/04 11:19:31;;;;;;;2.20;1.20;;;;;;;20.77;41.84;100132.58;1771614;80;21012;-69
2021/09/04 11:22:13;;;;;;;1.67;1.07;;;;;;;20.96;41.33;100121.67;1771582;80;21443;-69
2021/09/04 11:24:45;;;;;;;1.37;0.90;;;;;;;21.00;40.68;100126.45;1778024;80;20985;-68
2021/09/04 11:27:20;;;;;;;1.42;0.90;;;;;;;20.89;40.22;100125.64;1760963;80;25245;-70
2021/09/04 11:29:51;;;;;;;1.60;0.80;;;;;;;20.68;40.45;100125.68;1752579;80;21033;-68
2021/09/04 11:32:20;;;;;;;1.62;1.10;;;;;;;20.66;40.19;100122.36;1741080;80;21039;-68
2021/09/04 11:34:52;;;;;;;5.42;1.20;;;;;;;20.78;40.50;100124.32;1747358;80;21589;-68